Destinations Manchester Airport

Manchester Airport (EGCC / MAN)

Flights to Manchester Airport

Flight number From ETE Dispatch
SPY-2302 EGFF Cardiff International Airport 01:05

Flights from Manchester Airport

Flight number To ETE Dispatch
SPY-2303 EGFF Cardiff International Airport 01:05
About

Manchester Airport facts

Manchester Airport is located in Manchester at an elevation of 78.3 meters or 257 feet.

Currently, Speedy Airlines serves 2 flights to and from Manchester Airport.

Detailed airport info

Route map

Weather

Current weather

METAR

METAR

Metar data retrieved Sunday, 21 July 2024 at 18:25 UTC

EGCC 211750Z AUTO 29004KT 9999 NCD 17/11 Q1012
Wind Temperature
4 kt 17c